Cape Northumberland, South Australia

2:22 AM ACST on September 23, 2014 (GMT +0930)
Yahl | Change Station
CLOSE
Current Station
Personal Weather Station
Location: YAHL, SOUTH AUSTRALIA
Elevation: 128 ft
Nearby Weather Stations

Elev 128 ft 37.88 °S, 140.83 °E | Updated 13 minutes ago

Clear
Clear
50.3 °F
Feels Like 50.3 °F
N
0.0
Wind Variable Wind from West
Gusts 3.0 mph

Today
High -- | Low -- °F
--% Chance of Precip.
Yesterday
High -- | Low -- °F
Precip. -- in
5:56 AM 6:04 PM
Waning Crescent, 2% visible
Pressure 30.18 in
Visibility 6.2 miles
Clouds
Dew Point 40 °F
Humidity 67%
Rainfall 0.00 in
Snow Depth Not available.
UV Not available.
Pollen Not available.
Air Quality Not available.
Flu Activity Not available.
METAR YMTG 221600Z AUTO 02010KT 9999 // NCD 13/M00 Q1022

More Conditions Fewer Conditions

Pressure 30.18 in
Visibility 6.2 miles
Clouds
Dew Point 40 °F
Humidity 67%
Rainfall 0.00 in
Snow Depth Not available.
UV Not available.
Pollen Not available.
Air Quality Not available.
Flu Activity Not available.
METAR YMTG 221600Z AUTO 02010KT 9999 // NCD 13/M00 Q1022

More Conditions Fewer Conditions

10-Day Weather Forecast

Almanac

Astronomy

Sep. 23, 2014 Rise Set
Actual Time 5:56 AM ACST 6:04 PM ACST
Civil Twilight 5:29 AM ACST 6:30 PM ACST
Nautical Twilight 4:59 AM ACST 7:01 PM ACST
Astronomical Twilight 4:27 AM ACST 7:32 PM ACST
Moon 5:08 AM ACST (9/23) 5:11 PM ACST (9/23)
Length of Visible Light 13h 00m
Length of Day
12h 08m
Tomorrow will be 2m 26s longer.
Waning Crescent, 2% of the Moon is Illuminated
Sep 22
Waning Crescent
Sep 24
New
Oct 1
First Quarter
Oct 8
Full
Oct 15
Last Quarter

Yesterday's Extremes

Country Highs Country Lows

Community

WunderPhotos

Upload Photos

1,755,480 photos uploaded!

WunderBlogs® & News

Nearby

Snow Depth

Not available.

Earthquake Activity

City Distance Mag. Time & Date
No recent earthquake activity has been reported nearby.
Minimum magnitude displayed is 2.5.

Coastal Water Temperatures

Place Temperature
No Stations Reporting

Nearby Weather Stations